Time;durP1;ratioP1;P1;durP2;ratioP2;P2;SDS_P1;SDS_P2;PMS_P1;PMS_P2;Temp;Humidity;BMP_temperature;BMP_pressure;BME280_temperature;BME280_humidity;BME280_pressure;Samples;Min_cycle;Max_cycle;Signal;HPM_P1;HPM_P2
2023/04/05 03:57:39;;;;;;;2.70;1.85;;;16.70;47.70;;;;;;5085266;27;45839;-83
2023/04/05 19:32:21;;;;;;;3.15;1.95;;;17.30;42.80;;;;;;4948581;28;45327;-78
2023/04/05 19:34:49;;;;;;;3.65;2.13;;;17.00;42.40;;;;;;4948598;28;46674;-82
2023/04/05 19:37:19;;;;;;;3.15;1.95;;;17.00;42.30;;;;;;4947952;28;45118;-82
2023/04/05 19:39:47;;;;;;;3.67;1.70;;;17.00;42.40;;;;;;4948083;28;45234;-82
2023/04/05 19:42:17;;;;;;;2.92;1.70;;;16.90;42.30;;;;;;4948028;28;45588;-82
2023/04/05 19:44:53;;;;;;;2.63;1.77;;;17.00;42.30;;;;;;4947984;28;46879;-82
2023/04/05 19:47:22;;;;;;;3.15;1.38;;;17.00;42.10;;;;;;4948341;28;45316;-82
2023/04/05 19:49:51;;;;;;;2.15;1.50;;;17.00;41.90;;;;;;4948151;28;45126;-82
2023/04/05 19:52:39;;;;;;;2.70;1.88;;;17.00;42.00;;;;;;4948460;28;45130;-81
2023/04/05 19:55:29;;;;;;;3.38;1.55;;;17.00;41.80;;;;;;4948161;28;45845;-82
2023/04/05 19:58:00;;;;;;;4.05;1.60;;;17.00;41.70;;;;;;4947605;28;45206;-81
2023/04/05 20:00:36;;;;;;;2.70;1.70;;;17.00;41.30;;;;;;4948013;28;45368;-81
2023/04/05 20:03:25;;;;;;;3.80;1.73;;;17.10;41.50;;;;;;4948465;28;45341;-81
2023/04/05 20:06:12;;;;;;;2.10;1.70;;;17.00;41.10;;;;;;4947587;28;45847;-82
2023/04/05 20:08:43;;;;;;;3.17;1.50;;;17.00;40.90;;;;;;4941705;28;45304;-82
2023/04/05 20:11:14;;;;;;;1.58;1.40;;;17.00;40.90;;;;;;4947831;28;45079;-82
2023/04/05 20:13:45;;;;;;;2.47;1.58;;;17.00;41.10;;;;;;4947553;28;45246;-82
2023/04/05 20:16:14;;;;;;;2.80;1.58;;;17.10;41.20;;;;;;4947258;28;46830;-82
2023/04/05 20:18:47;;;;;;;2.88;1.60;;;17.00;41.20;;;;;;4947933;28;45235;-82
2023/04/05 20:21:17;;;;;;;3.08;1.75;;;17.00;41.40;;;;;;4947462;28;45237;-82
2023/04/05 20:23:47;;;;;;;2.42;1.23;;;17.00;41.10;;;;;;4947673;28;45319;-82
2023/04/05 20:26:17;;;;;;;2.25;1.42;;;17.00;41.20;;;;;;4948967;28;46917;-83
2023/04/05 20:28:53;;;;;;;2.40;1.45;;;17.00;41.40;;;;;;4947866;28;45107;-83
2023/04/05 20:31:25;;;;;;;2.05;1.30;;;17.00;41.30;;;;;;4947692;28;45113;-82
2023/04/05 20:33:59;;;;;;;2.78;1.50;;;17.00;41.40;;;;;;4947429;28;45254;-82
2023/04/05 20:36:33;;;;;;;3.50;1.30;;;17.00;41.40;;;;;;4947335;28;45562;-82
2023/04/05 20:39:02;;;;;;;2.63;1.50;;;16.90;41.10;;;;;;4947429;28;45201;-82
2023/04/05 20:41:30;;;;;;;1.52;1.40;;;16.90;41.00;;;;;;4947140;28;45159;-82
2023/04/05 20:43:58;;;;;;;3.10;1.60;;;16.90;41.10;;;;;;4947436;28;45218;-80
2023/04/05 20:46:26;;;;;;;3.05;1.50;;;16.90;41.40;;;;;;4947120;28;45729;-82
2023/04/05 20:48:59;;;;;;;2.17;1.58;;;17.00;41.50;;;;;;4947043;28;45558;-81
2023/04/05 20:51:28;;;;;;;2.55;1.60;;;16.90;41.80;;;;;;4947216;28;45192;-81
2023/04/05 20:53:58;;;;;;;1.42;1.10;;;16.90;41.40;;;;;;4947723;28;45446;-82
2023/04/05 20:56:26;;;;;;;1.65;1.40;;;16.90;41.50;;;;;;4946878;28;45600;-82
2023/04/05 20:58:55;;;;;;;2.35;1.40;;;17.00;41.80;;;;;;4947166;28;45242;-82
2023/04/05 21:01:24;;;;;;;1.42;1.20;;;16.90;41.40;;;;;;4947627;28;45123;-81
2023/04/05 21:03:55;;;;;;;1.92;1.30;;;16.90;41.80;;;;;;4946898;28;45224;-81
2023/04/05 21:06:24;;;;;;;4.47;1.63;;;17.00;41.70;;;;;;4946799;28;45781;-82
2023/04/05 21:08:51;;;;;;;3.72;1.67;;;17.00;41.40;;;;;;4946702;28;45158;-82
2023/04/05 21:11:20;;;;;;;3.25;1.85;;;17.00;41.80;;;;;;4946840;28;45197;-81
2023/04/05 21:13:50;;;;;;;2.13;1.45;;;17.00;41.60;;;;;;4946916;28;45160;-82
2023/04/05 21:16:19;;;;;;;2.47;1.42;;;16.90;41.70;;;;;;4948665;28;46870;-82
2023/04/05 21:18:47;;;;;;;2.95;1.75;;;17.00;41.40;;;;;;4950089;28;45149;-82
2023/04/05 21:21:17;;;;;;;2.75;1.55;;;16.90;41.50;;;;;;4952663;28;45222;-81
2023/04/05 21:23:51;;;;;;;2.38;1.33;;;16.90;42.00;;;;;;4950272;28;45218;-81
2023/04/05 21:26:20;;;;;;;2.38;1.58;;;16.90;42.00;;;;;;4950452;28;45560;-81
2023/04/05 21:28:47;;;;;;;2.83;1.58;;;16.90;42.10;;;;;;4950200;28;45154;-82
2023/04/05 21:31:15;;;;;;;2.72;1.70;;;16.90;42.00;;;;;;4950141;28;45284;-81
2023/04/05 21:33:42;;;;;;;2.85;1.73;;;16.80;41.80;;;;;;4949756;28;45355;-82
2023/04/05 21:36:13;;;;;;;1.73;1.30;;;16.80;41.80;;;;;;4949991;28;45580;-82
2023/04/05 21:38:42;;;;;;;2.88;1.90;;;16.80;42.00;;;;;;4950393;28;45211;-82
2023/04/05 21:41:14;;;;;;;3.33;1.63;;;16.80;42.00;;;;;;4949776;28;45172;-82
2023/04/05 21:43:42;;;;;;;2.72;1.48;;;16.80;42.10;;;;;;4950443;28;45240;-82
2023/04/05 21:46:11;;;;;;;3.67;1.50;;;16.80;42.00;;;;;;4949428;28;45842;-82
2023/04/05 21:48:41;;;;;;;2.75;1.60;;;16.80;42.00;;;;;;4949766;28;45233;-83
2023/04/05 21:51:10;;;;;;;2.25;1.48;;;16.90;42.20;;;;;;4949656;28;45356;-83
2023/04/05 21:53:39;;;;;;;2.47;1.40;;;16.90;42.20;;;;;;4949723;28;45234;-82
2023/04/05 21:56:07;;;;;;;2.15;1.45;;;16.90;42.10;;;;;;4949639;28;46067;-81
2023/04/05 21:58:37;;;;;;;2.15;1.63;;;16.90;42.00;;;;;;4949366;28;45118;-82
2023/04/05 22:01:06;;;;;;;2.88;1.80;;;16.90;42.10;;;;;;4949510;28;45249;-82
2023/04/05 22:03:36;;;;;;;2.05;1.30;;;17.00;42.00;;;;;;4949841;28;45222;-82
2023/04/05 22:06:04;;;;;;;2.80;1.67;;;16.90;42.10;;;;;;4949504;28;45278;-83
2023/04/05 22:08:33;;;;;;;2.25;1.60;;;16.90;41.70;;;;;;4949913;28;45222;-82
2023/04/05 22:11:02;;;;;;;2.58;1.38;;;16.90;41.90;;;;;;4949322;28;45150;-82
2023/04/05 22:13:33;;;;;;;2.65;1.70;;;16.90;42.00;;;;;;4949737;28;45511;-80
2023/04/05 22:16:04;;;;;;;3.03;1.65;;;16.90;41.80;;;;;;4951194;28;46583;-82
2023/04/05 22:18:32;;;;;;;2.92;1.60;;;16.90;42.00;;;;;;4949793;28;45377;-82
2023/04/05 22:21:02;;;;;;;3.10;1.63;;;16.90;41.90;;;;;;4949620;28;45178;-82
2023/04/05 22:23:29;;;;;;;2.28;1.55;;;16.90;41.90;;;;;;4949214;28;45547;-81
2023/04/05 22:25:57;;;;;;;3.33;1.60;;;16.90;41.80;;;;;;4949044;28;45521;-82
2023/04/05 22:28:25;;;;;;;2.80;1.83;;;16.90;41.90;;;;;;4947693;28;45228;-82
2023/04/05 22:30:53;;;;;;;2.10;1.50;;;16.90;42.10;;;;;;4948965;28;45166;-83
2023/04/05 22:33:24;;;;;;;2.60;1.90;;;16.90;42.10;;;;;;4949223;28;45185;-82
2023/04/05 22:35:52;;;;;;;2.85;1.77;;;16.90;41.80;;;;;;4950130;28;46789;-82
2023/04/05 22:38:21;;;;;;;3.20;1.83;;;16.90;41.90;;;;;;4949129;28;45237;-82
2023/04/05 22:40:51;;;;;;;2.92;1.80;;;16.90;42.00;;;;;;4949279;28;45200;-82
2023/04/05 22:43:20;;;;;;;3.08;1.65;;;16.90;41.80;;;;;;4949007;28;45126;-81
2023/04/05 22:45:50;;;;;;;3.35;1.88;;;16.90;41.80;;;;;;4948648;28;45725;-82
2023/04/05 22:48:20;;;;;;;3.10;1.83;;;16.90;43.00;;;;;;4948997;28;45228;-82
2023/04/05 22:50:52;;;;;;;2.38;1.52;;;16.90;41.70;;;;;;4949159;28;45327;-83
2023/04/05 22:53:23;;;;;;;2.40;1.38;;;16.90;41.70;;;;;;4949029;28;45557;-82
2023/04/05 22:55:52;;;;;;;3.15;1.65;;;16.90;41.70;;;;;;4948896;28;45843;-82
2023/04/05 22:58:21;;;;;;;2.33;1.60;;;16.90;41.70;;;;;;4948529;28;45362;-82
2023/04/05 23:00:50;;;;;;;3.17;1.70;;;16.90;41.80;;;;;;4948937;28;45313;-82
2023/04/05 23:03:20;;;;;;;2.42;1.38;;;16.90;41.60;;;;;;4948613;28;45454;-82
2023/04/05 23:05:51;;;;;;;3.25;1.85;;;16.90;41.40;;;;;;4948175;28;45895;-83
2023/04/05 23:08:19;;;;;;;2.58;1.77;;;16.90;41.40;;;;;;4951178;28;45316;-83
2023/04/05 23:10:47;;;;;;;2.30;1.52;;;16.90;41.40;;;;;;4949363;28;45249;-83
2023/04/05 23:13:16;;;;;;;2.55;1.75;;;16.90;41.50;;;;;;4948792;28;45138;-82
2023/04/05 23:15:47;;;;;;;2.88;1.80;;;16.90;41.60;;;;;;4948687;28;45571;-83
2023/04/05 23:18:21;;;;;;;3.60;1.73;;;16.90;41.60;;;;;;4948450;28;45233;-83
2023/04/05 23:20:52;;;;;;;4.88;1.75;;;16.90;41.60;;;;;;4948648;28;45395;-83
2023/04/05 23:23:22;;;;;;;2.70;1.70;;;16.90;41.60;;;;;;4948550;28;45336;-82
2023/04/05 23:25:52;;;;;;;2.92;1.58;;;16.90;41.80;;;;;;4947885;28;45751;-82
2023/04/05 23:28:21;;;;;;;2.75;1.85;;;16.90;41.80;;;;;;4947995;28;45342;-82
2023/04/05 23:30:49;;;;;;;4.22;2.00;;;16.90;41.80;;;;;;4948427;28;45235;-83
2023/04/05 23:33:18;;;;;;;2.55;1.70;;;16.80;41.70;;;;;;4947299;28;45139;-80
2023/04/05 23:35:48;;;;;;;4.10;1.90;;;16.90;42.00;;;;;;4947947;28;45569;-82
2023/04/05 23:38:20;;;;;;;4.50;2.20;;;16.90;41.80;;;;;;4947421;28;45171;-81
2023/04/05 23:40:50;;;;;;;2.95;2.00;;;16.90;41.90;;;;;;4947072;28;45293;-81
2023/04/05 23:43:19;;;;;;;3.78;2.10;;;16.80;41.90;;;;;;4947868;28;45143;-82
2023/04/05 23:45:48;;;;;;;3.70;2.30;;;16.90;41.90;;;;;;4947426;28;45577;-82
